Time;durP1;ratioP1;P1;durP2;ratioP2;P2;SDS_P1;SDS_P2;PMS_P1;PMS_P2;Temp;Humidity;BMP_temperature;BMP_pressure;BME280_temperature;BME280_humidity;BME280_pressure;Samples;Min_cycle;Max_cycle;Signal;HPM_P1;HPM_P2
2022/06/01 00:00:09;;;;;;;7.97;6.15;;;9.20;99.90;;;;;;5094236;28;20036;-91
2022/06/01 00:02:36;;;;;;;8.93;6.70;;;9.10;99.90;;;;;;5077566;28;20024;-90
2022/06/01 00:05:02;;;;;;;12.23;6.90;;;9.00;99.90;;;;;;5094342;28;20081;-90
2022/06/01 00:07:28;;;;;;;12.98;7.50;;;8.90;99.90;;;;;;5077648;28;20062;-90
2022/06/01 00:09:55;;;;;;;10.32;6.95;;;8.90;99.90;;;;;;5077601;28;20032;-89
2022/06/01 00:12:22;;;;;;;7.32;5.88;;;8.90;99.90;;;;;;5077689;28;20028;-90
2022/06/01 00:14:48;;;;;;;9.80;5.97;;;8.90;99.90;;;;;;5077635;28;20035;-89
2022/06/01 00:17:15;;;;;;;11.93;7.03;;;8.80;99.90;;;;;;5094123;28;20028;-90
2022/06/01 00:19:42;;;;;;;11.38;6.47;;;8.70;99.90;;;;;;5081622;28;20015;-90
2022/06/01 00:22:17;;;;;;;9.90;6.55;;;8.60;99.90;;;;;;5097972;28;20036;-91
2022/06/01 00:24:45;;;;;;;9.85;7.50;;;8.50;99.90;;;;;;5077146;28;20446;-90
2022/06/01 00:27:13;;;;;;;10.93;7.97;;;8.40;99.90;;;;;;5077561;28;20035;-90
2022/06/01 00:29:39;;;;;;;10.20;8.07;;;8.40;99.90;;;;;;5094136;28;20479;-90
2022/06/01 00:32:07;;;;;;;15.75;8.05;;;8.50;99.90;;;;;;5077390;28;20030;-90
2022/06/01 00:34:33;;;;;;;10.95;8.73;;;8.60;99.90;;;;;;5094058;28;20081;-91
2022/06/01 00:36:59;;;;;;;11.80;8.98;;;8.70;99.90;;;;;;5094451;28;20036;-90
2022/06/01 00:39:25;;;;;;;8.95;7.13;;;8.60;99.90;;;;;;5076501;28;20468;-90
2022/06/01 00:41:51;;;;;;;9.00;7.38;;;8.70;99.90;;;;;;5075980;28;20032;-90
2022/06/01 00:44:17;;;;;;;13.68;9.57;;;8.60;99.90;;;;;;5075555;28;20036;-90
2022/06/01 00:46:43;;;;;;;9.95;7.55;;;8.60;99.90;;;;;;5094538;28;20043;-89
2022/06/01 00:49:20;;;;;;;13.35;8.90;;;8.60;99.90;;;;;;5076419;28;20699;-90
2022/06/01 00:51:47;;;;;;;12.13;8.52;;;8.40;99.90;;;;;;5095115;28;20024;-90
2022/06/01 00:54:14;;;;;;;10.00;7.63;;;8.40;99.90;;;;;;5097604;28;20039;-89
2022/06/01 00:56:47;;;;;;;18.35;7.95;;;8.30;99.90;;;;;;5080795;28;20100;-91
2022/06/01 00:59:17;;;;;;;13.23;7.30;;;8.20;99.90;;;;;;5081052;28;20036;-90
2022/06/01 01:01:45;;;;;;;10.93;7.35;;;8.10;99.90;;;;;;5099348;28;20036;-89
2022/06/01 01:04:12;;;;;;;11.15;7.47;;;8.00;99.90;;;;;;5079879;28;20016;-90
2022/06/01 01:06:43;;;;;;;12.25;7.50;;;8.00;99.90;;;;;;5098363;28;20482;-90
2022/06/01 01:09:11;;;;;;;12.10;7.47;;;8.00;99.90;;;;;;5097048;28;20054;-90
2022/06/01 01:11:59;;;;;;;9.10;7.25;;;7.90;99.90;;;;;;5097753;28;20031;-90
2022/06/01 01:14:30;;;;;;;10.63;7.63;;;7.80;99.90;;;;;;5096643;28;20430;-90
2022/06/01 01:16:58;;;;;;;10.60;7.57;;;7.80;99.90;;;;;;5096238;28;20024;-90
2022/06/01 01:19:31;;;;;;;10.55;7.47;;;7.80;99.90;;;;;;5096658;28;20096;-89
2022/06/01 01:22:27;;;;;;;12.20;7.90;;;7.70;99.90;;;;;;5096860;28;20032;-90
2022/06/01 01:25:12;;;;;;;12.43;7.90;;;7.60;99.90;;;;;;5097952;28;20043;-90
2022/06/01 01:27:38;;;;;;;12.18;8.55;;;7.60;99.90;;;;;;5079930;28;20032;-90
2022/06/01 01:30:23;;;;;;;13.50;7.95;;;7.70;99.90;;;;;;5096864;28;20031;-90
2022/06/01 01:32:49;;;;;;;13.15;8.05;;;7.70;99.90;;;;;;5096329;28;20042;-90
2022/06/01 01:35:15;;;;;;;11.23;7.63;;;7.70;99.90;;;;;;5096331;28;20467;-90
2022/06/01 01:37:41;;;;;;;9.25;7.40;;;7.80;99.90;;;;;;5096983;28;20028;-90
2022/06/01 01:40:07;;;;;;;11.93;7.80;;;7.90;99.90;;;;;;5079528;28;20126;-89
2022/06/01 01:42:33;;;;;;;12.40;8.15;;;7.80;99.90;;;;;;5096769;28;20043;-91
2022/06/01 01:45:16;;;;;;;13.25;7.75;;;7.80;99.90;;;;;;5096136;28;20040;-90
2022/06/01 01:47:42;;;;;;;11.57;7.88;;;7.90;99.90;;;;;;5079196;28;20038;-89
2022/06/01 01:50:10;;;;;;;9.48;7.30;;;8.10;99.90;;;;;;5095825;28;20127;-90
2022/06/01 01:52:36;;;;;;;9.60;7.10;;;8.20;99.90;;;;;;5079202;28;20035;-89
2022/06/01 01:55:09;;;;;;;11.73;7.60;;;8.30;99.90;;;;;;5096014;28;20032;-90
2022/06/01 01:57:50;;;;;;;8.48;7.05;;;8.30;99.90;;;;;;5096027;28;20127;-90
2022/06/01 02:00:21;;;;;;;10.63;7.63;;;8.30;99.90;;;;;;5096083;28;20082;-90
2022/06/01 02:03:06;;;;;;;9.93;7.07;;;8.40;99.90;;;;;;5095239;28;20036;-90
2022/06/01 02:06:04;;;;;;;10.25;5.57;;;8.50;99.90;;;;;;5095739;28;20039;-90
2022/06/01 02:08:46;;;;;;;9.65;6.38;;;8.60;99.90;;;;;;5079409;28;20039;-89
2022/06/01 02:14:28;;;;;;;7.35;6.30;;;8.90;99.90;;;;;;5096410;28;20032;-90
2022/06/01 02:17:19;;;;;;;8.27;5.55;;;9.00;99.90;;;;;;5079258;28;20031;-89
2022/06/01 02:19:53;;;;;;;7.85;5.30;;;9.00;99.90;;;;;;5078788;28;20036;-90
2022/06/01 02:22:19;;;;;;;7.78;5.28;;;9.20;99.90;;;;;;5095572;28;20094;-91
2022/06/01 02:24:45;;;;;;;6.45;5.00;;;9.30;99.90;;;;;;5078983;28;20028;-90
2022/06/01 02:27:14;;;;;;;6.05;5.43;;;9.40;99.90;;;;;;5079252;28;20540;-90
2022/06/01 02:29:48;;;;;;;12.00;5.20;;;9.60;99.90;;;;;;5079267;28;20034;-89
2022/06/01 02:32:16;;;;;;;6.45;4.20;;;9.80;99.90;;;;;;5096298;28;20368;-90
2022/06/01 02:34:44;;;;;;;5.35;4.60;;;9.90;99.90;;;;;;5095530;28;20051;-90
2022/06/01 02:37:14;;;;;;;13.95;5.65;;;9.90;99.90;;;;;;5078834;28;20122;-89
2022/06/01 02:39:43;;;;;;;7.80;5.03;;;10.00;99.90;;;;;;5096380;28;20455;-90
2022/06/01 02:42:28;;;;;;;6.95;5.18;;;9.90;99.90;;;;;;5078312;28;20032;-89
2022/06/01 02:45:04;;;;;;;8.68;5.22;;;9.80;99.90;;;;;;5094791;28;20023;-90
2022/06/01 02:47:33;;;;;;;7.10;5.30;;;9.80;99.90;;;;;;5078166;28;20028;-91
2022/06/01 02:50:00;;;;;;;14.10;5.70;;;9.80;99.90;;;;;;5095124;28;20036;-91
2022/06/01 02:52:27;;;;;;;7.70;5.82;;;9.80;99.90;;;;;;5078473;28;20024;-90
2022/06/01 02:54:53;;;;;;;5.68;4.97;;;9.70;99.90;;;;;;5094996;28;20524;-90
2022/06/01 02:57:20;;;;;;;11.68;5.68;;;9.60;99.90;;;;;;5077655;28;20032;-90
2022/06/01 02:59:46;;;;;;;11.95;5.50;;;9.50;99.90;;;;;;5094567;28;20028;-90
2022/06/01 03:02:12;;;;;;;7.25;5.40;;;9.40;99.90;;;;;;5094718;28;20042;-90
2022/06/01 03:04:40;;;;;;;10.13;5.20;;;9.40;99.90;;;;;;5094526;28;20040;-91
2022/06/01 03:07:06;;;;;;;10.48;6.10;;;9.30;99.90;;;;;;5094724;28;20501;-91
2022/06/01 03:09:32;;;;;;;11.38;5.90;;;9.30;99.90;;;;;;5094434;28;20040;-91
2022/06/01 03:11:59;;;;;;;8.93;5.28;;;9.20;99.90;;;;;;5094380;28;20024;-91
2022/06/01 03:14:25;;;;;;;8.40;6.10;;;9.20;99.90;;;;;;5094048;28;20407;-90
2022/06/01 03:16:51;;;;;;;6.97;5.60;;;9.10;99.90;;;;;;5077563;28;20028;-90
2022/06/01 03:19:17;;;;;;;11.68;5.72;;;9.10;99.90;;;;;;5095795;28;20035;-91
2022/06/01 03:21:43;;;;;;;8.68;6.22;;;9.00;99.90;;;;;;5077375;28;20032;-90
2022/06/01 03:24:09;;;;;;;9.27;5.75;;;8.90;99.90;;;;;;5077530;28;20398;-93
2022/06/01 03:26:36;;;;;;;11.43;6.25;;;8.80;99.90;;;;;;5078568;28;20028;-93
2022/06/01 03:29:03;;;;;;;9.50;6.35;;;8.80;99.90;;;;;;5078735;28;20067;-92
2022/06/01 03:31:28;;;;;;;10.60;5.95;;;8.80;99.90;;;;;;5078029;28;20047;-93
2022/06/01 03:33:54;;;;;;;8.60;6.38;;;8.70;99.90;;;;;;5096079;28;20020;-93
2022/06/01 03:36:21;;;;;;;18.17;7.15;;;8.60;99.90;;;;;;5095407;28;20502;-93
2022/06/01 03:38:47;;;;;;;12.13;6.47;;;8.50;99.90;;;;;;5096082;28;20028;-92
2022/06/01 03:41:13;;;;;;;10.68;6.57;;;8.50;99.90;;;;;;5078425;28;20486;-93
2022/06/01 03:46:23;;;;;;;10.65;7.13;;;8.60;99.90;;;;;;5095105;28;20036;-92
2022/06/01 03:48:49;;;;;;;16.00;7.05;;;8.60;99.90;;;;;;5094784;28;20114;-92
2022/06/01 03:51:15;;;;;;;8.00;6.45;;;8.70;99.90;;;;;;5094922;28;20060;-92
2022/06/01 03:53:41;;;;;;;9.88;6.75;;;8.60;99.90;;;;;;5095990;28;20064;-92
2022/06/01 03:56:08;;;;;;;8.77;6.18;;;8.60;99.90;;;;;;5078695;28;20020;-92
2022/06/01 03:58:35;;;;;;;9.35;6.85;;;8.60;99.90;;;;;;5096705;28;20028;-93
2022/06/01 04:01:02;;;;;;;10.90;6.45;;;8.60;99.90;;;;;;5096125;28;20553;-93
2022/06/01 04:03:29;;;;;;;8.32;6.47;;;8.70;99.90;;;;;;5095488;28;20081;-92
2022/06/01 04:05:54;;;;;;;8.63;5.80;;;8.60;99.90;;;;;;5096430;28;20122;-93
2022/06/01 04:08:20;;;;;;;12.52;6.57;;;8.60;99.90;;;;;;5078809;28;20070;-93
2022/06/01 04:10:46;;;;;;;12.57;6.78;;;8.70;99.90;;;;;;5078759;28;20059;-92
2022/06/01 04:13:14;;;;;;;8.88;6.28;;;8.70;99.90;;;;;;5078495;28;20062;-93
2022/06/01 04:15:41;;;;;;;12.63;6.97;;;8.70;99.90;;;;;;5095001;28;20028;-92
2022/06/01 04:18:07;;;;;;;10.43;6.57;;;8.70;99.90;;;;;;5096801;28;20063;-92
2022/06/01 04:20:33;;;;;;;11.18;6.32;;;8.70;99.90;;;;;;5095756;28;20039;-93
2022/06/01 04:23:00;;;;;;;11.75;6.57;;;8.70;99.90;;;;;;5078941;28;20040;-93
2022/06/01 04:25:27;;;;;;;15.25;7.45;;;8.80;99.90;;;;;;5078434;28;20028;-92
2022/06/01 04:27:53;;;;;;;9.30;6.32;;;8.90;99.90;;;;;;5078384;28;20085;-92
2022/06/01 04:30:20;;;;;;;10.95;6.90;;;9.10;99.90;;;;;;5096558;28;20036;-93
2022/06/01 04:32:48;;;;;;;10.48;6.00;;;9.20;99.90;;;;;;5095980;28;20035;-92
2022/06/01 04:35:15;;;;;;;12.60;7.10;;;9.20;99.90;;;;;;5094606;28;20077;-92
2022/06/01 04:37:40;;;;;;;9.05;6.68;;;9.20;99.90;;;;;;5077525;28;20035;-93
2022/06/01 04:40:07;;;;;;;8.00;5.90;;;9.30;99.90;;;;;;5095073;28;20028;-93
2022/06/01 04:42:42;;;;;;;10.32;6.88;;;9.20;99.90;;;;;;5095034;28;20086;-92
2022/06/01 04:45:11;;;;;;;11.00;6.63;;;9.20;99.90;;;;;;5094431;28;20039;-92
2022/06/01 04:47:38;;;;;;;10.18;6.15;;;9.30;99.90;;;;;;5078148;28;20110;-93
2022/06/01 04:50:05;;;;;;;13.02;6.07;;;9.40;99.90;;;;;;5094921;28;20036;-93
2022/06/01 04:52:31;;;;;;;8.25;6.30;;;9.60;99.90;;;;;;5095747;28;20520;-92
2022/06/01 04:54:56;;;;;;;10.50;6.30;;;9.80;99.90;;;;;;5094472;28;20020;-93
2022/06/01 04:57:22;;;;;;;9.70;6.25;;;10.10;99.90;;;;;;5077690;28;20025;-92
2022/06/01 04:59:48;;;;;;;12.20;6.38;;;10.50;99.90;;;;;;5078177;28;20038;-93
2022/06/01 05:02:14;;;;;;;9.95;5.90;;;10.90;99.90;;;;;;5077951;28;20032;-93
2022/06/01 05:04:40;;;;;;;9.43;5.43;;;11.20;99.90;;;;;;5094775;28;20036;-93
2022/06/01 05:07:06;;;;;;;8.02;5.78;;;11.40;99.90;;;;;;5095541;28;20032;-91
2022/06/01 05:09:32;;;;;;;6.72;5.78;;;11.50;99.90;;;;;;5095011;28;20043;-93
2022/06/01 05:11:58;;;;;;;16.90;6.43;;;11.50;99.90;;;;;;5095202;28;20024;-93
2022/06/01 05:14:23;;;;;;;7.45;6.05;;;11.70;99.90;;;;;;5095275;28;20049;-93
2022/06/01 05:16:49;;;;;;;8.30;5.97;;;11.80;99.90;;;;;;5078045;28;20036;-92
2022/06/01 05:19:15;;;;;;;10.70;6.13;;;11.80;99.90;;;;;;5077318;28;20072;-93
2022/06/01 05:21:41;;;;;;;9.85;5.70;;;11.80;99.90;;;;;;5093819;28;20036;-92
2022/06/01 05:24:07;;;;;;;91.35;50.13;;;11.80;99.90;;;;;;5093903;28;20387;-93
2022/06/01 05:26:32;;;;;;;242.05;97.10;;;11.90;99.90;;;;;;5077405;28;20107;-93
2022/06/01 05:28:58;;;;;;;32.97;14.80;;;11.90;99.90;;;;;;5094320;28;20082;-93
2022/06/01 05:31:24;;;;;;;16.15;6.53;;;12.10;99.90;;;;;;5077508;28;20594;-93
2022/06/01 05:33:50;;;;;;;8.43;5.45;;;12.20;99.90;;;;;;5094397;28;20110;-93
2022/06/01 05:36:17;;;;;;;13.90;5.90;;;12.30;99.90;;;;;;5094988;28;20028;-93
2022/06/01 05:38:45;;;;;;;13.68;5.45;;;12.30;99.90;;;;;;5098185;28;20028;-94
2022/06/01 05:41:12;;;;;;;15.15;5.85;;;12.40;99.90;;;;;;5100070;28;20066;-93
2022/06/01 05:43:38;;;;;;;10.20;5.43;;;12.50;99.90;;;;;;5097671;28;20110;-92
2022/06/01 05:46:04;;;;;;;13.85;5.70;;;12.50;99.90;;;;;;5081824;28;20093;-93
2022/06/01 05:48:30;;;;;;;9.80;5.72;;;12.60;99.90;;;;;;5081552;28;20031;-93
2022/06/01 05:50:55;;;;;;;11.88;6.05;;;12.60;99.90;;;;;;5080930;28;20471;-93
2022/06/01 05:53:21;;;;;;;6.95;5.65;;;12.60;99.90;;;;;;5080777;28;20021;-93
2022/06/01 05:55:47;;;;;;;12.98;5.60;;;12.60;99.90;;;;;;5098489;28;20107;-93
2022/06/01 05:58:21;;;;;;;8.18;5.43;;;12.70;99.90;;;;;;5081321;28;20059;-93
2022/06/01 06:00:49;;;;;;;8.27;5.75;;;12.70;99.90;;;;;;5099920;28;20058;-93
2022/06/01 06:03:16;;;;;;;8.13;5.18;;;12.70;99.90;;;;;;5081635;28;20035;-93
2022/06/01 06:08:26;;;;;;;11.23;5.15;;;12.70;99.90;;;;;;5099575;28;20020;-93
2022/06/01 06:10:52;;;;;;;8.85;5.03;;;12.80;99.90;;;;;;5081512;28;20038;-93
2022/06/01 06:13:18;;;;;;;13.43;5.05;;;12.90;99.90;;;;;;5097972;28;20024;-92
2022/06/01 06:15:43;;;;;;;9.30;5.43;;;12.90;99.90;;;;;;5080590;28;20459;-93
2022/06/01 06:18:13;;;;;;;10.77;6.35;;;13.00;99.90;;;;;;5098042;28;20475;-92
2022/06/01 06:20:42;;;;;;;10.82;5.15;;;13.10;99.90;;;;;;5098284;28;20091;-92
2022/06/01 06:23:08;;;;;;;10.30;5.03;;;13.10;99.90;;;;;;5097863;28;20057;-93
2022/06/01 06:25:34;;;;;;;15.85;4.72;;;13.20;99.90;;;;;;5098398;28;20107;-93
2022/06/01 06:28:00;;;;;;;9.88;4.82;;;13.30;99.90;;;;;;5098463;28;20811;-94
2022/06/01 06:30:25;;;;;;;7.15;4.90;;;13.30;99.90;;;;;;5098944;28;20085;-92
2022/06/01 06:32:52;;;;;;;6.55;3.70;;;13.40;99.90;;;;;;5099471;28;20498;-93
2022/06/01 06:35:18;;;;;;;5.40;3.80;;;13.50;99.90;;;;;;5096784;28;20542;-93
2022/06/01 06:37:44;;;;;;;4.97;3.33;;;13.60;99.90;;;;;;5080846;28;20056;-93
2022/06/01 06:40:11;;;;;;;6.68;3.25;;;13.70;99.90;;;;;;5081260;28;20036;-94
2022/06/01 06:42:37;;;;;;;9.50;4.25;;;13.80;99.90;;;;;;5080526;28;20046;-93
2022/06/01 06:45:04;;;;;;;7.95;3.85;;;13.90;99.90;;;;;;5080191;28;20142;-94
2022/06/01 06:47:32;;;;;;;7.72;3.70;;;14.00;99.90;;;;;;5079529;28;20118;-93
2022/06/01 06:49:58;;;;;;;5.60;3.72;;;14.00;99.90;;;;;;5078868;28;20028;-94
2022/06/01 06:52:24;;;;;;;8.07;3.65;;;14.00;99.90;;;;;;5079418;28;20024;-92
2022/06/01 06:54:50;;;;;;;7.53;4.25;;;14.10;99.90;;;;;;5096962;28;20061;-93
2022/06/01 06:57:16;;;;;;;7.13;4.30;;;14.20;99.90;;;;;;5079935;28;20028;-92
2022/06/01 06:59:41;;;;;;;6.18;3.40;;;14.30;99.90;;;;;;5078886;28;20035;-92
2022/06/01 07:02:07;;;;;;;6.45;3.90;;;14.30;99.90;;;;;;5095844;28;20032;-93
2022/06/01 07:04:35;;;;;;;11.07;4.63;;;14.40;99.90;;;;;;5077542;28;20039;-90
2022/06/01 07:07:01;;;;;;;9.23;3.53;;;14.60;99.90;;;;;;5095213;28;20032;-92
2022/06/01 07:09:27;;;;;;;5.85;2.97;;;14.70;99.90;;;;;;5096297;28;20032;-92
2022/06/01 07:11:53;;;;;;;6.95;3.20;;;14.80;99.90;;;;;;5095229;28;20448;-92
2022/06/01 07:14:19;;;;;;;5.63;3.40;;;15.10;99.90;;;;;;5095623;28;20063;-93
2022/06/01 07:16:45;;;;;;;7.20;2.97;;;15.40;99.90;;;;;;5096823;28;20055;-92
2022/06/01 07:19:11;;;;;;;7.85;3.25;;;15.50;99.90;;;;;;5096181;28;20029;-91
2022/06/01 07:21:37;;;;;;;4.35;2.95;;;15.60;99.90;;;;;;5095423;28;20074;-90
2022/06/01 07:24:06;;;;;;;3.55;3.00;;;16.20;99.90;;;;;;5077813;28;20074;-90
2022/06/01 07:26:34;;;;;;;4.88;2.78;;;17.40;99.90;;;;;;5095612;28;20036;-93
2022/06/01 07:29:01;;;;;;;5.07;2.70;;;18.70;99.90;;;;;;5094899;28;20396;-90
2022/06/01 07:31:26;;;;;;;4.20;2.80;;;19.60;99.90;;;;;;5095243;28;20383;-89
2022/06/01 07:33:52;;;;;;;3.65;2.83;;;19.70;99.90;;;;;;5094462;28;20024;-89
2022/06/01 07:36:18;;;;;;;5.45;3.30;;;18.60;99.90;;;;;;5078531;28;20028;-91
2022/06/01 07:44:19;;;;;;;7.15;3.10;;;15.90;99.90;;;;;;5095091;28;20118;-90
2022/06/01 07:46:46;;;;;;;7.82;2.83;;;15.80;99.90;;;;;;5077207;28;20107;-91
2022/06/01 07:49:11;;;;;;;7.68;3.00;;;15.80;99.90;;;;;;5095379;28;20128;-90
2022/06/01 07:51:39;;;;;;;5.40;2.72;;;15.70;99.90;;;;;;5077791;28;20064;-91
2022/06/01 07:54:06;;;;;;;4.85;2.63;;;15.90;99.90;;;;;;5077029;28;20032;-92
2022/06/01 07:56:33;;;;;;;5.75;2.88;;;17.10;99.90;;;;;;5077472;28;20790;-91
2022/06/01 07:58:58;;;;;;;8.85;2.72;;;18.80;99.90;;;;;;5077576;28;20039;-91
2022/06/01 08:01:27;;;;;;;7.03;2.40;;;20.20;99.90;;;;;;5094569;28;20628;-91
2022/06/01 08:03:56;;;;;;;4.95;2.63;;;21.60;99.90;;;;;;5077049;28;20031;-91
2022/06/01 08:06:23;;;;;;;3.28;2.10;;;22.50;98.20;;;;;;5077471;28;20036;-91
2022/06/01 08:08:48;;;;;;;3.25;2.10;;;23.10;95.70;;;;;;5077759;28;20040;-92
2022/06/01 08:11:14;;;;;;;4.47;2.50;;;23.40;91.60;;;;;;5078956;28;20032;-92
2022/06/01 08:13:40;;;;;;;4.00;2.13;;;23.40;90.00;;;;;;5077866;28;20032;-91
2022/06/01 08:16:06;;;;;;;6.25;2.72;;;23.50;89.00;;;;;;5095635;28;20077;-92
2022/06/01 08:18:32;;;;;;;5.13;2.40;;;23.70;88.00;;;;;;5094923;28;20475;-91
2022/06/01 08:20:58;;;;;;;10.13;2.50;;;24.20;85.20;;;;;;5095444;28;20036;-93
2022/06/01 08:23:29;;;;;;;9.68;2.30;;;24.40;79.80;;;;;;5095707;28;20031;-92
2022/06/01 08:25:55;;;;;;;5.20;2.22;;;24.60;78.20;;;;;;5094316;28;20475;-92
2022/06/01 08:28:22;;;;;;;7.25;2.22;;;24.20;78.10;;;;;;5077809;28;20073;-92
2022/06/01 08:30:48;;;;;;;3.20;2.55;;;23.90;79.70;;;;;;5094562;28;20043;-92
2022/06/01 08:33:15;;;;;;;6.55;2.42;;;23.60;78.20;;;;;;5095770;28;20024;-92
2022/06/01 08:35:44;;;;;;;2.53;1.80;;;23.30;79.00;;;;;;5094872;28;20032;-92
2022/06/01 08:38:10;;;;;;;11.63;2.20;;;23.60;78.10;;;;;;5094853;28;20054;-92
2022/06/01 08:40:46;;;;;;;4.65;2.05;;;23.70;78.60;;;;;;5094937;28;20068;-92
2022/06/01 08:43:15;;;;;;;2.95;2.05;;;23.10;77.30;;;;;;5095103;28;20032;-92
2022/06/01 08:45:46;;;;;;;8.15;2.00;;;23.40;77.90;;;;;;5077021;28;20039;-92
2022/06/01 08:48:16;;;;;;;;;;;24.10;76.00;;;;;;5094909;28;20036;-92
2022/06/01 08:50:42;;;;;;;4.53;2.38;;;24.20;73.90;;;;;;5094263;28;19911;-92
2022/06/01 08:53:09;;;;;;;3.45;2.08;;;23.90;74.50;;;;;;5094819;28;20028;-91
2022/06/01 08:55:50;;;;;;;6.15;2.40;;;23.60;73.20;;;;;;5094250;28;20059;-92
2022/06/01 08:58:24;;;;;;;7.15;2.08;;;23.00;73.60;;;;;;5094894;28;20024;-91
2022/06/01 09:00:59;;;;;;;4.95;1.88;;;23.60;76.60;;;;;;5093843;28;20508;-93
2022/06/01 09:03:35;;;;;;;8.95;2.00;;;23.70;76.50;;;;;;5094766;28;20032;-92
2022/06/01 09:06:12;;;;;;;4.30;1.85;;;23.80;73.80;;;;;;5077210;28;20040;-92
2022/06/01 09:08:50;;;;;;;3.45;2.13;;;23.80;72.90;;;;;;5077306;28;20037;-92
2022/06/01 09:11:26;;;;;;;4.63;2.00;;;23.30;74.00;;;;;;5076406;28;20123;-92
2022/06/01 09:14:20;;;;;;;3.13;1.70;;;23.30;75.00;;;;;;5098191;28;20024;-91
2022/06/01 09:16:48;;;;;;;5.70;2.50;;;23.40;69.70;;;;;;5081979;28;20028;-93
2022/06/01 09:19:30;;;;;;;5.68;2.20;;;22.30;73.60;;;;;;5099723;28;20031;-91
2022/06/01 09:25:03;;;;;;;7.05;2.40;;;21.70;75.50;;;;;;5059833;28;20033;-91
2022/06/01 09:27:52;;;;;;;8.93;2.40;;;23.30;73.50;;;;;;5072983;28;20040;-92
2022/06/01 09:30:24;;;;;;;6.20;2.42;;;24.00;70.70;;;;;;5098141;28;20399;-92
2022/06/01 09:33:04;;;;;;;6.13;2.20;;;23.70;69.00;;;;;;5097794;28;20024;-93
2022/06/01 09:35:35;;;;;;;3.95;2.33;;;23.80;70.70;;;;;;5080807;28;20166;-91
2022/06/01 09:38:11;;;;;;;;;;;24.50;68.70;;;;;;5098849;28;20028;-91
2022/06/01 09:40:36;;;;;;;3.10;1.95;;;24.90;67.00;;;;;;5097604;28;19957;-93
2022/06/01 09:43:03;;;;;;;5.97;2.20;;;25.70;63.80;;;;;;5097916;28;20081;-92
2022/06/01 09:45:42;;;;;;;6.25;2.30;;;25.30;65.30;;;;;;5097178;28;20051;-92
2022/06/01 09:48:24;;;;;;;5.05;1.80;;;25.00;65.30;;;;;;5080830;28;20028;-91
2022/06/01 09:50:59;;;;;;;5.38;2.28;;;24.80;64.80;;;;;;5080594;28;20072;-92
2022/06/01 09:53:34;;;;;;;3.15;2.22;;;24.20;65.00;;;;;;5098319;28;20459;-91
2022/06/01 09:56:02;;;;;;;3.53;2.10;;;23.10;67.90;;;;;;5081971;28;20028;-92
2022/06/01 10:08:29;;;;;;;7.45;1.90;;;22.70;70.90;;;;;;5098652;28;20429;-93
2022/06/01 10:11:01;;;;;;;6.63;2.53;;;22.40;71.60;;;;;;5098645;28;20028;-91
2022/06/01 10:13:37;;;;;;;3.72;1.95;;;22.30;72.00;;;;;;5097875;28;20078;-93
2022/06/01 10:16:35;;;;;;;4.50;2.22;;;22.60;72.50;;;;;;5081237;28;20008;-93
2022/06/01 10:19:03;;;;;;;4.28;3.03;;;21.70;69.80;;;;;;5097849;28;20055;-94
2022/06/01 10:21:54;;;;;;;11.70;3.17;;;21.30;69.90;;;;;;5081781;28;20090;-93
2022/06/01 10:24:32;;;;;;;5.30;2.00;;;21.40;74.30;;;;;;5098366;28;20028;-92
2022/06/01 10:27:00;;;;;;;11.15;2.70;;;21.40;73.40;;;;;;5098403;28;20110;-92
2022/06/01 10:29:32;;;;;;;4.00;2.25;;;21.40;74.50;;;;;;5081047;28;20036;-93
2022/06/01 10:32:08;;;;;;;5.00;2.83;;;21.40;73.20;;;;;;5097820;28;20180;-93
2022/06/01 10:34:55;;;;;;;8.93;2.70;;;21.60;72.70;;;;;;5081271;28;20043;-91
2022/06/01 10:37:34;;;;;;;5.95;2.67;;;21.90;70.60;;;;;;5098918;28;20410;-93
2022/06/01 10:40:21;;;;;;;10.73;3.20;;;21.90;71.50;;;;;;5080142;28;20036;-88
2022/06/01 10:45:45;;;;;;;9.25;2.47;;;21.80;69.80;;;;;;5098571;28;20047;-92
2022/06/01 10:48:23;;;;;;;6.43;2.88;;;22.20;70.00;;;;;;5080054;28;20109;-92
2022/06/01 10:51:01;;;;;;;7.10;2.40;;;22.20;71.40;;;;;;5081842;28;20049;-92
2022/06/01 10:53:57;;;;;;;5.93;2.50;;;22.30;71.80;;;;;;5098118;28;20031;-91
2022/06/01 10:56:23;;;;;;;3.30;2.70;;;22.20;69.60;;;;;;5080947;28;20090;-91
2022/06/01 10:58:51;;;;;;;4.15;2.92;;;22.70;72.30;;;;;;5080762;28;20038;-94
2022/06/01 11:01:55;;;;;;;57.72;30.08;;;23.00;66.50;;;;;;5097514;28;20521;-94
2022/06/01 11:04:48;;;;;;;8.23;3.88;;;22.80;67.50;;;;;;5080596;28;20032;-93
2022/06/01 11:07:44;;;;;;;6.43;3.42;;;21.60;70.40;;;;;;5096059;28;20391;-93
2022/06/01 11:10:26;;;;;;;7.10;2.72;;;21.30;70.90;;;;;;5080440;28;20060;-92
2022/06/01 11:12:53;;;;;;;6.30;2.90;;;22.10;73.10;;;;;;5079864;28;20045;-93
2022/06/01 11:15:41;;;;;;;8.88;2.00;;;22.70;70.30;;;;;;5097257;28;20032;-91
2022/06/01 11:18:09;;;;;;;8.43;2.90;;;23.10;70.90;;;;;;5079977;28;20784;-91
2022/06/01 11:21:11;;;;;;;6.00;2.83;;;23.40;66.40;;;;;;5080349;28;20036;-91
2022/06/01 11:23:59;;;;;;;7.15;2.70;;;22.20;66.60;;;;;;5080803;28;20433;-91
2022/06/01 11:26:34;;;;;;;4.68;1.92;;;21.80;69.10;;;;;;5080466;28;20028;-93
2022/06/01 11:29:14;;;;;;;3.30;1.90;;;21.70;67.30;;;;;;5097461;28;20063;-91
2022/06/01 11:31:43;;;;;;;8.00;2.70;;;21.90;67.60;;;;;;5080740;28;20038;-92
2022/06/01 11:34:15;;;;;;;8.25;2.25;;;21.60;69.30;;;;;;5079923;28;20039;-93
2022/06/01 11:37:10;;;;;;;4.25;2.90;;;22.20;69.60;;;;;;5078878;28;20032;-92
2022/06/01 11:40:06;;;;;;;4.88;2.15;;;23.00;66.90;;;;;;5079779;28;20028;-93
2022/06/01 11:42:47;;;;;;;4.38;2.42;;;23.10;68.10;;;;;;5079695;28;20479;-92
2022/06/01 11:45:21;;;;;;;4.72;2.60;;;23.30;66.70;;;;;;5078814;28;20044;-92
2022/06/01 11:47:56;;;;;;;4.05;2.30;;;22.70;66.50;;;;;;5080018;28;20055;-92
2022/06/01 11:50:46;;;;;;;8.82;2.40;;;22.70;68.20;;;;;;5096224;28;20039;-94
2022/06/01 11:53:19;;;;;;;7.45;2.58;;;23.00;67.90;;;;;;5079386;28;20028;-92
2022/06/01 11:55:49;;;;;;;6.18;2.28;;;22.50;67.30;;;;;;5097289;28;20028;-94
2022/06/01 11:58:29;;;;;;;5.28;2.40;;;21.60;70.70;;;;;;5096373;28;20024;-93
2022/06/01 12:01:11;;;;;;;4.10;2.50;;;21.30;71.50;;;;;;5097313;28;20035;-94
2022/06/01 12:04:17;;;;;;;8.23;2.47;;;21.30;74.80;;;;;;5079375;28;20065;-93
2022/06/01 12:07:08;;;;;;;4.03;2.22;;;21.50;73.20;;;;;;5065518;28;20056;-94
2022/06/01 12:09:45;;;;;;;6.22;2.47;;;21.50;73.00;;;;;;5095920;28;20047;-94
2022/06/01 12:12:44;;;;;;;8.32;2.10;;;21.70;73.50;;;;;;5095606;28;20066;-94
2022/06/01 12:15:21;;;;;;;6.30;2.40;;;21.90;70.80;;;;;;5095930;28;20032;-94
2022/06/01 12:18:05;;;;;;;3.30;2.05;;;21.60;70.50;;;;;;5096203;28;20071;-93
2022/06/01 12:20:34;;;;;;;4.47;2.47;;;21.30;71.70;;;;;;5079788;28;20032;-94
2022/06/01 12:28:49;;;;;;;4.63;2.60;;;22.70;71.70;;;;;;5095183;28;20036;-94
2022/06/01 12:31:33;;;;;;;3.90;1.75;;;22.60;67.60;;;;;;5096550;28;20045;-91
2022/06/01 12:34:28;;;;;;;3.45;1.80;;;23.10;68.20;;;;;;5095684;28;20110;-91
2022/06/01 12:37:17;;;;;;;7.15;1.60;;;24.10;68.00;;;;;;5064444;28;20043;-91
2022/06/01 12:39:49;;;;;;;10.65;1.88;;;24.10;64.80;;;;;;5095329;28;20060;-94
2022/06/01 12:42:41;;;;;;;3.83;1.60;;;23.10;66.00;;;;;;5095270;28;20032;-93
2022/06/01 12:45:16;;;;;;;5.10;2.13;;;23.00;65.50;;;;;;5074119;28;20040;-93
2022/06/01 12:47:53;;;;;;;2.78;2.05;;;22.30;66.20;;;;;;5076653;28;20050;-94
2022/06/01 12:50:21;;;;;;;7.68;2.20;;;22.80;67.80;;;;;;5095238;28;20052;-95
2022/06/01 12:52:47;;;;;;;4.25;1.50;;;23.70;65.20;;;;;;5077971;28;20032;-93
2022/06/01 12:55:24;;;;;;;5.25;1.95;;;24.20;63.80;;;;;;5095345;28;20077;-93
2022/06/01 12:57:56;;;;;;;6.47;1.65;;;24.30;63.40;;;;;;5095677;28;20058;-94
2022/06/01 13:00:27;;;;;;;8.02;1.90;;;24.40;63.10;;;;;;5078509;28;20035;-91
2022/06/01 13:02:53;;;;;;;6.50;1.90;;;24.80;64.80;;;;;;5095141;28;20085;-90
2022/06/01 13:05:26;;;;;;;5.45;1.30;;;24.70;60.70;;;;;;5077723;28;20044;-92
2022/06/01 13:07:57;;;;;;;2.30;1.60;;;24.00;61.20;;;;;;5094873;28;20035;-93
2022/06/01 13:10:32;;;;;;;2.33;1.58;;;23.40;61.70;;;;;;5094717;28;20040;-92
2022/06/01 13:16:47;;;;;;;2.22;1.73;;;22.60;63.00;;;;;;5096714;28;20035;-94
2022/06/01 13:19:29;;;;;;;5.28;1.52;;;22.50;66.10;;;;;;5078627;28;20131;-93
2022/06/01 13:22:19;;;;;;;8.25;1.55;;;23.50;64.60;;;;;;5095812;28;20074;-93
2022/06/01 13:25:08;;;;;;;4.45;1.45;;;24.50;59.80;;;;;;5077343;28;20032;-95
2022/06/01 13:27:38;;;;;;;2.38;1.20;;;23.10;60.00;;;;;;5094348;28;20145;-94
2022/06/01 13:30:05;;;;;;;2.97;1.05;;;22.40;60.00;;;;;;5094356;28;20028;-93
2022/06/01 13:32:42;;;;;;;14.75;1.90;;;22.90;62.70;;;;;;5077464;28;20024;-94
2022/06/01 13:35:32;;;;;;;2.33;1.52;;;23.30;62.20;;;;;;5077685;28;20056;-95
2022/06/01 13:37:58;;;;;;;4.88;1.38;;;23.80;59.20;;;;;;5078269;28;20069;-93
2022/06/01 13:40:32;;;;;;;7.28;1.40;;;24.20;59.80;;;;;;5093596;28;20032;-94
2022/06/01 13:43:14;;;;;;;6.70;1.58;;;24.60;58.80;;;;;;5077025;28;20055;-93
2022/06/01 13:46:18;;;;;;;5.75;1.48;;;24.80;57.20;;;;;;5094407;28;20064;-92
2022/06/01 13:48:52;;;;;;;7.05;1.33;;;24.20;57.90;;;;;;5077154;28;20568;-92